Terminal Aerodrome Forecast
Issued by NWS Wilmington, NC

Home | Current Version | Previous Version | Text Only | Print | Product List | Glossary On
Versions: 1 2 3 4 5 6 7 8 9 10 11 12 13 14 15 16 17 18 19 20 21 22 23 24 25 26 27 28 29
834
FTUS42 KILM 230544 CCA
TAFMYR
TAF COR
KMYR 230544Z 2306/2406 15009KT P6SM VCSH BKN015 OVC030
      TEMPO 2306/2308 23008KT BKN005
     FM230800 22009KT P6SM SCT004 BKN120 OVC250
     FM231400 22014KT P6SM VCSH SCT025 BKN040
     FM232300 27007KT P6SM OVC045
      AMD LTD TO CLD VIS AND WIND TIL 231100=

USA.gov is the U.S. government's official web portal to all federal, state and local government web resources and services.